Montevideo, Uruguay

11:33 AM UYST on October 24, 2014 (GMT -0200)
Carrasco International-Gen C L Berisso | Change Station
CLOSE
Current Station
Airport
Location: Montevideo,
Elevation: 105 ft
Nearby Weather Stations

Elev 105 ft 34.83 °S, 56.01 °W | Updated 33 minutes ago

Clear
Clear
75 °F
Feels Like 75 °F
N
0
Wind Variable Wind from North

Today
High -- | Low -- °F
--% Chance of Precip.
Yesterday
High -- | Low -- °F
Precip. -- in
6:50 AM 8:06 PM
New Moon, 0% visible
Pressure 30.04 in
Visibility -9999.0 miles
Clouds
Dew Point 66 °F
Humidity 73%
Rainfall 0.00 in
Snow Depth Not available.
UV Not available.
Pollen Not available.
Air Quality Not available.
Flu Activity Not available.
METAR SUMU 241300Z 00000KT CAVOK 24/19 Q1017 NOSIG

More Conditions Fewer Conditions

Pressure 30.04 in
Visibility -9999.0 miles
Clouds
Dew Point 66 °F
Humidity 73%
Rainfall 0.00 in
Snow Depth Not available.
UV Not available.
Pollen Not available.
Air Quality Not available.
Flu Activity Not available.
METAR SUMU 241300Z 00000KT CAVOK 24/19 Q1017 NOSIG

More Conditions Fewer Conditions

10-Day Weather Forecast

Almanac

Astronomy

Oct. 24, 2014 Rise Set
Actual Time 6:50 AM UYST 8:06 PM UYST
Civil Twilight 6:24 AM UYST 8:32 PM UYST
Nautical Twilight 5:52 AM UYST 9:04 PM UYST
Astronomical Twilight 5:20 AM UYST 9:36 PM UYST
Moon 7:17 AM UYST 8:58 PM UYST
Length of Visible Light 14h 08m
Length of Day
13h 15m
Tomorrow will be 2m 3s longer.
New Moon, 0% of the Moon is Illuminated
Today
New Moon
Oct 30
First Quarter
Nov 6
Full
Nov 14
Last Quarter
Nov 22
New

Yesterday's Extremes

Country Highs Country Lows

Community

WunderPhotos

Upload Photos

1,764,550 photos uploaded!

WunderBlogs® & News

Nearby

Snow Depth

Not available.

Earthquake Activity

City Distance Mag. Time & Date
No recent earthquake activity has been reported nearby.
Minimum magnitude displayed is 2.5.

Coastal Water Temperatures

Place Temperature
No Stations Reporting

Nearby Weather Stations